Řízení letového provozu České republiky
Letiste: LKNA Aktualizace: 22.09.2019 09:43:26  UTC
 SPECI LKNA 22.09. 09:39 ...
SPECI LKNA 220939Z /////KT 3000 VV/// 15/// Q1017 RMK YLO=
 TAF LKNA 22.09. 05:00 ...
TAF LKNA 220500Z 2206/2306 12010KT CAVOK      TEMPO 2208/2216 15014KT=